Time;durP1;ratioP1;P1;durP2;ratioP2;P2;SDS_P1;SDS_P2;PMS_P1;PMS_P2;Temp;Humidity;BMP_temperature;BMP_pressure;BME280_temperature;BME280_humidity;BME280_pressure;Samples;Min_cycle;Max_cycle;Signal;HPM_P1;HPM_P2
2023/02/13 00:00:21;;;;;;;50.63;31.67;;;;;;;0.21;100.00;101566.94;5073543;28;20054;-79
2023/02/13 00:02:46;;;;;;;51.00;32.38;;;;;;;0.39;100.00;101620.19;5073502;28;20024;-78
2023/02/13 00:05:12;;;;;;;56.55;34.22;;;;;;;0.34;100.00;101630.00;5055973;28;20118;-78
2023/02/13 00:07:37;;;;;;;57.38;34.40;;;;;;;0.85;100.00;101631.16;5055804;28;20035;-78
2023/02/13 00:10:03;;;;;;;56.83;35.22;;;;;;;0.71;100.00;101607.28;5055625;28;20058;-78
2023/02/13 00:12:28;;;;;;;57.95;36.70;;;;;;;0.86;100.00;101627.84;5073613;28;20082;-78
2023/02/13 00:14:54;;;;;;;60.65;36.15;;;;;;;0.91;100.00;101630.53;5072699;28;20064;-78
2023/02/13 00:17:19;;;;;;;63.08;39.28;;;;;;;0.47;100.00;101574.66;5073672;28;20068;-79
2023/02/13 00:19:44;;;;;;;61.85;39.17;;;;;;;0.68;100.00;101643.03;5072933;28;20387;-77
2023/02/13 00:22:10;;;;;;;65.40;38.80;;;;;;;0.52;100.00;101642.34;5072526;28;20032;-76
2023/02/13 00:24:36;;;;;;;64.90;39.80;;;;;;;0.61;100.00;101653.59;5072208;28;20033;-76
2023/02/13 00:27:01;;;;;;;64.88;42.50;;;;;;;0.20;100.00;101651.09;5072287;28;20032;-77
2023/02/13 00:29:26;;;;;;;65.47;42.15;;;;;;;-0.09;100.00;101631.56;5072515;28;20036;-77
2023/02/13 00:31:53;;;;;;;64.50;41.97;;;;;;;-0.09;100.00;101652.41;5072381;28;20021;-75
2023/02/13 00:34:18;;;;;;;71.65;41.92;;;;;;;-0.21;100.00;101653.53;5054583;28;20059;-75
2023/02/13 00:36:44;;;;;;;70.00;42.60;;;;;;;-0.34;100.00;101604.72;5073754;28;20028;-78
2023/02/13 00:39:11;;;;;;;70.50;43.13;;;;;;;-0.25;100.00;101662.53;5072356;28;20509;-75
2023/02/13 00:41:37;;;;;;;68.45;40.47;;;;;;;-0.53;100.00;101598.84;5054501;28;20036;-75
2023/02/13 00:44:03;;;;;;;69.35;40.30;;;;;;;-0.22;100.00;101674.31;5054586;28;20035;-76
2023/02/13 00:46:28;;;;;;;67.43;39.95;;;;;;;-0.08;100.00;101674.09;5072318;28;20032;-77
2023/02/13 00:48:53;;;;;;;67.20;40.60;;;;;;;-0.80;100.00;101608.53;5072540;28;20053;-75
2023/02/13 00:51:19;;;;;;;65.20;39.45;;;;;;;-0.06;100.00;101697.50;5072159;28;20032;-76
2023/02/13 00:53:44;;;;;;;60.35;38.15;;;;;;;-0.78;100.00;101624.41;5071777;28;20032;-75
2023/02/13 00:56:10;;;;;;;60.35;37.10;;;;;;;-0.24;100.00;101703.38;5071836;28;20031;-75
2023/02/13 00:58:35;;;;;;;65.80;38.65;;;;;;;-0.55;100.00;101658.72;5072087;28;20028;-76
2023/02/13 01:01:01;;;;;;;63.67;38.53;;;;;;;-0.40;100.00;101673.53;5071802;28;20111;-77
2023/02/13 01:03:26;;;;;;;58.30;36.42;;;;;;;-0.32;100.00;101703.03;5072450;28;20028;-76
2023/02/13 01:05:52;;;;;;;62.13;38.83;;;;;;;-0.12;100.00;101717.22;5054020;28;20032;-77
2023/02/13 01:08:19;;;;;;;65.38;38.50;;;;;;;-0.24;100.00;101706.69;5053974;28;20028;-77
2023/02/13 01:10:47;;;;;;;69.53;40.97;;;;;;;-0.39;100.00;101668.59;5071815;28;20029;-76
2023/02/13 01:13:14;;;;;;;69.60;39.53;;;;;;;-0.31;100.00;101702.25;5072028;28;20483;-76
2023/02/13 01:15:40;;;;;;;63.72;38.58;;;;;;;-0.74;100.00;101666.19;5071934;28;20544;-76
2023/02/13 01:18:07;;;;;;;65.15;38.88;;;;;;;-1.32;100.00;101634.41;5071222;28;20032;-76
2023/02/13 01:20:33;;;;;;;67.40;40.63;;;;;;;-0.95;100.00;101727.59;5071930;28;20130;-75
2023/02/13 01:22:58;;;;;;;61.50;37.50;;;;;;;-0.27;100.00;101745.69;5072075;28;20047;-76
2023/02/13 01:25:24;;;;;;;58.58;34.03;;;;;;;-0.89;100.00;101693.81;5071102;28;20028;-77
2023/02/13 01:27:49;;;;;;;52.20;33.58;;;;;;;-0.05;100.00;101751.72;5071871;28;20036;-76
2023/02/13 01:30:17;;;;;;;57.35;34.03;;;;;;;-0.53;100.00;101732.06;5054068;28;20062;-77
2023/02/13 01:32:46;;;;;;;57.80;35.05;;;;;;;-0.69;100.00;101708.84;5053567;28;20036;-76
2023/02/13 01:35:13;;;;;;;61.60;34.83;;;;;;;-0.84;100.00;101699.03;5053456;28;20470;-76
2023/02/13 01:37:38;;;;;;;58.25;35.47;;;;;;;-0.88;100.00;101694.69;5071442;28;20020;-76
2023/02/13 01:40:05;;;;;;;56.50;34.35;;;;;;;-0.89;100.00;101697.94;5070840;28;20465;-76
2023/02/13 01:42:33;;;;;;;60.28;33.45;;;;;;;-0.93;100.00;101709.44;5070795;28;20495;-76
2023/02/13 01:45:01;;;;;;;54.80;32.63;;;;;;;-0.79;100.00;101715.03;5071236;28;20124;-74
2023/02/13 01:47:39;;;;;;;54.10;32.35;;;;;;;-0.61;100.00;101763.31;5071676;28;20036;-73
2023/02/13 01:50:04;;;;;;;53.22;31.00;;;;;;;-0.49;100.00;101768.00;5070861;28;20059;-74
2023/02/13 01:52:30;;;;;;;51.45;32.65;;;;;;;-0.67;100.00;101772.19;5070645;28;20115;-76
2023/02/13 01:54:56;;;;;;;50.08;29.98;;;;;;;-0.94;100.00;101770.13;5053200;28;20505;-76
2023/02/13 01:57:24;;;;;;;51.35;30.35;;;;;;;-1.06;100.00;101713.78;5052736;28;20028;-75
2023/02/13 02:00:09;;;;;;;47.70;28.52;;;;;;;-0.92;100.00;101755.22;5053195;28;20036;-76
2023/02/13 02:02:38;;;;;;;43.83;26.52;;;;;;;-1.36;100.00;101734.78;5070085;28;20036;-76
2023/02/13 02:05:05;;;;;;;42.75;24.88;;;;;;;-1.38;100.00;101756.28;5070494;28;20043;-74
2023/02/13 02:07:32;;;;;;;42.92;25.33;;;;;;;-1.17;100.00;101762.34;5070495;28;20028;-76
2023/02/13 02:10:10;;;;;;;41.83;24.90;;;;;;;-0.82;100.00;101796.41;5070331;28;20028;-76
2023/02/13 02:12:42;;;;;;;41.22;24.90;;;;;;;-1.00;100.00;101797.28;5071127;28;20111;-74
2023/02/13 02:15:08;;;;;;;39.38;24.60;;;;;;;-1.22;100.00;101814.50;5053483;28;20029;-74
2023/02/13 02:17:34;;;;;;;40.45;24.25;;;;;;;-0.88;100.00;101839.44;5071302;28;20039;-74
2023/02/13 02:20:09;;;;;;;39.03;24.10;;;;;;;-0.83;100.00;101824.69;5071184;28;20028;-76
2023/02/13 02:22:53;;;;;;;36.08;23.77;;;;;;;-0.70;100.00;101827.81;5053195;28;20029;-76
2023/02/13 02:25:21;;;;;;;40.83;24.08;;;;;;;-0.64;100.00;101833.09;5071147;28;20028;-74
2023/02/13 02:28:03;;;;;;;38.72;25.98;;;;;;;-1.32;100.00;101754.97;5070721;28;20101;-75
2023/02/13 02:31:04;;;;;;;42.47;25.65;;;;;;;-0.85;100.00;101831.22;5053264;28;20025;-75
2023/02/13 02:33:41;;;;;;;41.17;25.10;;;;;;;-1.37;100.00;101788.81;4973117;28;20034;-73
2023/02/13 02:36:34;;;;;;;35.03;22.67;;;;;;;-0.90;100.00;101831.88;5060362;28;20118;-74
2023/02/13 02:39:45;;;;;;;38.53;23.50;;;;;;;-1.05;100.00;101831.13;5070291;28;20112;-74
2023/02/13 02:42:28;;;;;;;39.15;23.15;;;;;;;-0.67;100.00;101879.53;5071007;28;20063;-74
2023/02/13 02:44:57;;;;;;;38.80;24.45;;;;;;;-0.81;100.00;101873.84;5052549;28;20033;-74
2023/02/13 02:51:00;;;;;;;39.42;23.20;;;;;;;-1.23;100.00;101852.66;5070423;28;20086;-73
2023/02/13 02:57:02;;;;;;;33.85;20.95;;;;;;;-1.23;100.00;101849.34;5041242;28;20505;-74
2023/02/13 03:07:45;;;;;;;33.30;21.15;;;;;;;-1.56;100.00;101845.13;5078344;28;20039;-74
2023/02/13 03:13:21;;;;;;;35.38;21.15;;;;;;;-1.32;100.00;101906.22;5074650;28;20035;-74
2023/02/13 03:22:17;;;;;;;34.60;21.60;;;;;;;-1.39;100.00;101915.06;5079015;28;20123;-74
2023/02/13 03:24:53;;;;;;;35.83;21.35;;;;;;;-1.45;100.00;101923.84;4956748;28;20133;-75
2023/02/13 03:30:29;;;;;;;34.03;20.70;;;;;;;-1.41;100.00;101913.25;5049387;28;20131;-76
2023/02/13 03:33:20;;;;;;;37.55;21.95;;;;;;;-1.11;100.00;101915.63;5056363;28;20028;-77
2023/02/13 03:38:49;;;;;;;30.75;19.67;;;;;;;-1.20;100.00;101916.81;5074167;28;20094;-76
2023/02/13 03:41:29;;;;;;;27.75;15.68;;;;;;;-1.26;100.00;101909.91;5056521;28;20036;-76
2023/02/13 03:44:04;;;;;;;34.80;19.70;;;;;;;-1.46;100.00;101907.16;5068608;28;20056;-76
2023/02/13 03:46:34;;;;;;;31.55;19.88;;;;;;;-1.39;100.00;101911.69;5073924;28;20039;-76
2023/02/13 03:52:09;;;;;;;34.72;21.58;;;;;;;-1.25;100.00;101893.31;5079808;28;20043;-77
2023/02/13 04:00:43;;;;;;;41.03;24.13;;;;;;;-1.27;100.00;101877.41;5073434;28;20035;-77
2023/02/13 04:03:30;;;;;;;46.90;26.35;;;;;;;-1.38;100.00;101895.94;5073656;28;20099;-75
2023/02/13 04:06:03;;;;;;;53.28;31.02;;;;;;;-2.17;100.00;101792.19;5076411;28;20670;-76
2023/02/13 04:08:29;;;;;;;53.13;30.33;;;;;;;-1.69;100.00;101870.22;5073174;28;20021;-75
2023/02/13 04:11:08;;;;;;;55.97;31.67;;;;;;;-1.93;100.00;101870.69;5072763;28;20033;-76
2023/02/13 04:13:49;;;;;;;55.45;31.50;;;;;;;-2.20;100.00;101811.91;5073631;28;20111;-75
2023/02/13 04:16:20;;;;;;;57.13;35.13;;;;;;;-2.07;100.00;101856.63;5072893;28;20028;-76
2023/02/13 04:18:48;;;;;;;50.30;27.60;;;;;;;-1.81;100.00;101870.47;5072553;28;20029;-76
2023/02/13 04:21:14;;;;;;;63.13;35.78;;;;;;;-1.83;100.00;101857.94;5072797;28;20029;-76
2023/02/13 04:23:40;;;;;;;64.40;37.53;;;;;;;-1.52;100.00;101865.31;5055023;28;20035;-75
2023/02/13 04:26:12;;;;;;;64.80;38.33;;;;;;;-2.00;100.00;101847.88;5072351;28;20037;-77
2023/02/13 04:28:38;;;;;;;69.32;40.35;;;;;;;-2.08;100.00;101854.91;5072584;28;20098;-75
2023/02/13 04:31:03;;;;;;;64.25;39.03;;;;;;;-2.43;100.00;101832.25;5074262;28;20036;-75
2023/02/13 04:33:29;;;;;;;61.65;36.97;;;;;;;-1.74;100.00;101879.94;5067099;28;20074;-67
2023/02/13 04:35:55;;;;;;;40.65;24.88;;;;;;;-2.87;100.00;101873.75;5072090;28;20028;-79
2023/02/13 04:38:21;;;;;;;44.45;25.52;;;;;;;-3.64;100.00;101810.50;5072256;28;20028;-79
2023/02/13 04:40:46;;;;;;;43.70;25.50;;;;;;;-3.20;100.00;101861.91;5072455;28;20054;-76
2023/02/13 04:43:11;;;;;;;43.97;24.77;;;;;;;-3.18;100.00;101902.63;5072987;28;20100;-77
2023/02/13 04:45:39;;;;;;;47.25;29.33;;;;;;;-2.69;100.00;101904.63;5071919;28;20025;-75
2023/02/13 04:48:04;;;;;;;44.20;27.35;;;;;;;-3.14;100.00;101887.97;5071980;28;20119;-76
2023/02/13 04:50:30;;;;;;;44.70;26.80;;;;;;;-2.91;100.00;101835.41;5037968;28;20087;-78
2023/02/13 04:52:57;;;;;;;50.25;26.80;;;;;;;-2.74;100.00;101899.44;5051498;28;20112;-76
2023/02/13 04:55:27;;;;;;;46.47;27.88;;;;;;;-2.60;100.00;101900.19;5034392;28;20054;-73
2023/02/13 04:57:53;;;;;;;49.45;28.17;;;;;;;-2.35;100.00;101905.72;5052268;28;20041;-78
2023/02/13 05:00:21;;;;;;;55.83;30.45;;;;;;;-2.82;100.00;101835.94;5051980;28;20064;-75
2023/02/13 05:02:46;;;;;;;63.20;36.42;;;;;;;-2.68;100.00;101889.81;5035287;28;20044;-78
2023/02/13 05:05:12;;;;;;;81.55;46.60;;;;;;;-3.10;100.00;101832.69;5052226;28;20029;-77
2023/02/13 05:07:37;;;;;;;101.78;60.08;;;;;;;-2.74;100.00;101864.59;5051865;28;20119;-79
2023/02/13 05:10:03;;;;;;;88.05;51.97;;;;;;;-2.18;100.00;101897.53;5033992;28;20025;-78
2023/02/13 05:12:28;;;;;;;72.95;45.13;;;;;;;-2.66;100.00;101838.50;5036868;28;20036;-76
2023/02/13 05:14:53;;;;;;;63.22;38.20;;;;;;;-2.86;100.00;101890.41;5033776;28;20129;-77
2023/02/13 05:17:19;;;;;;;59.92;35.58;;;;;;;-2.74;100.00;101886.13;5052008;28;20028;-77
2023/02/13 05:19:44;;;;;;;67.03;40.20;;;;;;;-2.69;100.00;101899.66;5052466;28;20059;-77
2023/02/13 05:24:54;;;;;;;48.92;28.10;;;;;;;-2.41;100.00;101925.31;5051209;28;20479;-82
2023/02/13 05:27:19;;;;;;;46.75;25.00;;;;;;;-2.43;100.00;101936.81;5051405;28;20037;-78
2023/02/13 05:29:45;;;;;;;45.42;27.33;;;;;;;-2.69;100.00;101890.56;5051120;28;20047;-78
2023/02/13 05:32:10;;;;;;;46.15;26.48;;;;;;;-3.04;100.00;101859.50;5050577;28;20337;-80
2023/02/13 05:34:35;;;;;;;65.80;36.47;;;;;;;-3.19;100.00;101861.13;5050258;28;20483;-78
2023/02/13 05:37:01;;;;;;;61.55;35.63;;;;;;;-3.25;100.00;101881.53;5050455;28;20032;-80
2023/02/13 05:39:26;;;;;;;59.03;33.38;;;;;;;-2.80;100.00;101935.53;5052234;28;20029;-80
2023/02/13 05:41:52;;;;;;;70.00;39.92;;;;;;;-3.00;100.00;101923.59;5051945;28;20037;-77
2023/02/13 05:44:17;;;;;;;63.17;36.50;;;;;;;-2.42;100.00;101931.09;5051202;28;20036;-77
2023/02/13 05:46:43;;;;;;;46.53;26.23;;;;;;;-1.03;100.00;101960.97;5050976;28;20107;-72
2023/02/13 05:49:11;;;;;;;47.10;28.92;;;;;;;-1.61;100.00;101974.56;5038071;28;20044;-76
2023/02/13 05:51:36;;;;;;;48.58;28.42;;;;;;;-2.09;100.00;101912.13;5070580;28;20045;-78
2023/02/13 05:54:02;;;;;;;46.63;29.25;;;;;;;0.47;100.00;101984.03;5071619;28;20112;-78
2023/02/13 05:56:27;;;;;;;47.28;27.83;;;;;;;2.50;100.00;101914.66;5071334;28;20020;-78
2023/02/13 05:58:54;;;;;;;54.00;31.23;;;;;;;2.74;100.00;101821.78;5071363;28;20028;-79
2023/02/13 06:01:20;;;;;;;47.10;30.20;;;;;;;3.20;100.00;101729.50;5071549;28;20032;-77
2023/02/13 06:03:46;;;;;;;67.10;36.15;;;;;;;3.62;100.00;101718.97;5071832;28;20113;-76
2023/02/13 06:06:12;;;;;;;88.30;47.85;;;;;;;2.77;100.00;101665.38;5052976;28;20519;-74
2023/02/13 06:08:38;;;;;;;90.50;54.10;;;;;;;3.39;100.00;101715.78;5071446;28;20636;-77
2023/02/13 06:11:04;;;;;;;81.47;52.47;;;;;;;3.56;100.00;101747.31;5071416;28;20040;-78
2023/02/13 06:13:29;;;;;;;92.55;57.67;;;;;;;4.49;100.00;101766.66;5071894;28;20040;-77
2023/02/13 06:15:55;;;;;;;91.53;53.70;;;;;;;4.59;100.00;101826.50;5053654;28;20036;-79
2023/02/13 06:18:21;;;;;;;112.65;65.53;;;;;;;4.33;100.00;101868.63;5071182;28;20040;-76
2023/02/13 06:20:46;;;;;;;115.57;72.68;;;;;;;4.27;100.00;101876.00;5071493;28;20471;-76
2023/02/13 06:23:12;;;;;;;87.60;55.60;;;;;;;3.45;100.00;101928.00;5070638;28;20040;-76
2023/02/13 06:25:37;;;;;;;92.20;59.22;;;;;;;4.80;100.00;101871.53;5070828;28;20028;-77
2023/02/13 06:28:04;;;;;;;77.20;51.60;;;;;;;5.76;100.00;101948.75;5053103;28;20090;-78
2023/02/13 06:30:30;;;;;;;88.07;56.70;;;;;;;6.15;100.00;101977.44;5072014;28;20533;-77
2023/02/13 06:32:57;;;;;;;86.00;53.80;;;;;;;6.17;100.00;101944.66;5071733;28;20032;-79
2023/02/13 06:35:23;;;;;;;89.32;56.13;;;;;;;5.84;100.00;102035.63;5071542;28;20032;-79
2023/02/13 06:37:48;;;;;;;88.25;55.83;;;;;;;6.68;100.00;102001.31;5054927;28;20021;-79
2023/02/13 06:40:15;;;;;;;104.85;65.15;;;;;;;7.35;100.00;102008.53;5075339;28;20105;-79
2023/02/13 06:42:44;;;;;;;112.93;73.63;;;;;;;7.14;100.00;102068.81;5074883;28;20028;-78
2023/02/13 06:45:10;;;;;;;110.88;71.93;;;;;;;6.91;100.00;102118.94;5075034;28;20483;-79
2023/02/13 06:47:40;;;;;;;94.25;58.65;;;;;;;5.63;100.00;102133.41;5074643;28;20491;-80
2023/02/13 06:50:06;;;;;;;88.57;55.35;;;;;;;4.58;100.00;102063.19;5075284;28;20049;-79
2023/02/13 06:52:32;;;;;;;88.35;54.88;;;;;;;3.65;100.00;102101.25;5074118;28;20032;-79
2023/02/13 06:54:57;;;;;;;89.18;55.13;;;;;;;2.84;100.00;102019.66;5074465;28;20025;-79
2023/02/13 06:57:22;;;;;;;89.88;58.72;;;;;;;3.31;100.00;102044.81;5057133;28;20478;-79
2023/02/13 06:59:48;;;;;;;98.47;57.13;;;;;;;3.13;100.00;102035.78;5056459;28;20417;-78
2023/02/13 07:02:13;;;;;;;86.30;53.53;;;;;;;2.64;100.00;102001.38;5056290;28;20197;-78
2023/02/13 07:04:39;;;;;;;69.85;45.88;;;;;;;2.93;100.00;101914.50;5074543;28;20541;-77
2023/02/13 07:07:04;;;;;;;70.13;45.13;;;;;;;3.02;100.00;101960.03;5056955;28;20032;-77
2023/02/13 07:09:31;;;;;;;62.17;38.70;;;;;;;3.22;100.00;101912.97;5057179;28;20364;-76
2023/02/13 07:11:56;;;;;;;63.28;37.80;;;;;;;3.40;100.00;101918.59;5074774;28;20029;-77
2023/02/13 07:14:22;;;;;;;59.08;36.92;;;;;;;3.75;100.00;101847.63;5075113;28;20111;-77
2023/02/13 07:16:47;;;;;;;80.18;54.63;;;;;;;4.06;100.00;101849.38;5057001;28;20079;-77
2023/02/13 07:19:13;;;;;;;87.75;61.25;;;;;;;4.39;100.00;101906.56;5057135;28;20097;-77
2023/02/13 07:21:38;;;;;;;75.80;50.85;;;;;;;4.49;100.00;101911.84;5056763;28;20481;-77
2023/02/13 07:24:04;;;;;;;64.05;43.20;;;;;;;4.70;100.00;101925.00;5074917;28;20028;-77
2023/02/13 07:26:30;;;;;;;57.50;36.63;;;;;;;4.39;100.00;101925.84;5074283;28;20083;-77
2023/02/13 07:28:55;;;;;;;59.90;39.28;;;;;;;4.03;100.00;101925.63;5056401;28;20119;-77
2023/02/13 07:31:20;;;;;;;52.83;32.72;;;;;;;4.42;100.00;101915.84;5073811;28;20110;-77
2023/02/13 07:33:49;;;;;;;58.17;33.22;;;;;;;3.96;100.00;101916.16;5073939;28;20040;-77
2023/02/13 07:36:15;;;;;;;53.15;32.20;;;;;;;4.00;100.00;101902.88;5074113;28;20028;-77
2023/02/13 07:38:40;;;;;;;51.22;34.35;;;;;;;4.23;100.00;101894.34;5074236;28;20111;-77
2023/02/13 07:41:06;;;;;;;55.63;35.40;;;;;;;4.09;100.00;101889.72;5072523;28;20185;-78
2023/02/13 07:43:31;;;;;;;52.97;32.78;;;;;;;5.02;100.00;101869.63;5073200;28;20034;-78
2023/02/13 07:46:01;;;;;;;53.67;35.95;;;;;;;4.18;100.00;101827.91;5074165;28;20506;-78
2023/02/13 07:48:27;;;;;;;46.53;30.10;;;;;;;3.38;100.00;101812.13;5073247;28;20029;-77
2023/02/13 07:50:53;;;;;;;41.30;29.73;;;;;;;4.58;100.00;101839.03;5072577;28;20048;-77
2023/02/13 07:53:18;;;;;;;41.45;28.02;;;;;;;4.66;100.00;101824.97;5073940;28;20074;-77
2023/02/13 07:55:44;;;;;;;45.22;33.63;;;;;;;4.29;100.00;101856.75;5072853;28;20477;-77
2023/02/13 07:58:10;;;;;;;33.95;23.30;;;;;;;3.64;100.00;101792.78;5073747;28;20062;-77
2023/02/13 08:00:35;;;;;;;36.92;24.17;;;;;;;4.15;100.00;101824.47;5073401;28;20061;-77
2023/02/13 08:03:01;;;;;;;34.25;23.80;;;;;;;4.45;100.00;101827.81;5073416;28;20029;-78
2023/02/13 08:05:28;;;;;;;37.00;23.15;;;;;;;4.22;100.00;101736.56;5073654;28;20032;-78
2023/02/13 08:07:54;;;;;;;29.52;20.58;;;;;;;3.77;100.00;101833.44;5073861;28;20039;-78
2023/02/13 08:13:04;;;;;;;27.08;18.88;;;;;;;3.94;100.00;101818.84;5073670;28;20105;-78
2023/02/13 08:15:30;;;;;;;29.70;20.23;;;;;;;4.80;100.00;101804.38;5073418;28;20028;-78
2023/02/13 08:17:55;;;;;;;26.33;18.55;;;;;;;4.28;100.00;101756.88;5073139;28;20138;-80
2023/02/13 08:20:21;;;;;;;38.08;22.33;;;;;;;4.30;100.00;101829.91;5072955;28;20181;-79
2023/02/13 08:22:46;;;;;;;25.75;18.38;;;;;;;4.52;100.00;101791.91;5072627;28;20067;-78
2023/02/13 08:25:12;;;;;;;24.63;18.25;;;;;;;3.87;100.00;101771.66;5071976;28;20037;-79
2023/02/13 08:27:38;;;;;;;24.52;17.08;;;;;;;4.37;100.00;101830.13;5071521;28;20202;-78
2023/02/13 08:30:04;;;;;;;23.52;16.40;;;;;;;4.28;100.00;101829.00;5072745;28;20024;-80
2023/02/13 08:32:30;;;;;;;28.02;18.35;;;;;;;4.29;100.00;101798.00;5071005;28;20115;-79
2023/02/13 08:34:55;;;;;;;24.50;16.45;;;;;;;4.76;100.00;101820.22;5073589;28;20085;-80
2023/02/13 08:37:21;;;;;;;26.15;18.00;;;;;;;4.91;100.00;101818.06;5071402;28;20028;-80
2023/02/13 08:39:47;;;;;;;24.27;15.52;;;;;;;4.29;100.00;101773.69;5071573;28;20020;-78
2023/02/13 08:42:12;;;;;;;22.42;16.00;;;;;;;5.21;100.00;101845.69;5072705;28;20111;-82
2023/02/13 08:44:39;;;;;;;21.55;14.85;;;;;;;5.16;100.00;101832.13;5072664;28;20040;-82
2023/02/13 08:47:06;;;;;;;25.85;16.23;;;;;;;4.75;100.00;101860.50;5071856;28;20056;-81
2023/02/13 08:49:32;;;;;;;20.25;13.45;;;;;;;4.93;100.00;101866.84;5088095;28;20054;-81
2023/02/13 08:51:58;;;;;;;23.77;13.75;;;;;;;4.61;100.00;101875.25;5072365;28;20059;-79
2023/02/13 08:54:26;;;;;;;19.50;14.65;;;;;;;4.43;100.00;101824.41;5072816;28;20032;-79
2023/02/13 08:56:53;;;;;;;26.02;16.35;;;;;;;5.51;100.00;101868.25;5072511;28;20016;-79
2023/02/13 08:59:18;;;;;;;23.30;14.63;;;;;;;5.39;100.00;101823.44;5072130;28;20116;-79
2023/02/13 09:01:44;;;;;;;22.35;14.30;;;;;;;4.90;100.00;101841.59;5070609;28;20126;-79
2023/02/13 09:04:09;;;;;;;16.00;11.15;;;;;;;5.18;100.00;101899.44;5071593;28;20116;-79
2023/02/13 09:06:35;;;;;;;18.75;12.65;;;;;;;5.23;100.00;101899.53;5070426;28;20090;-80
2023/02/13 09:09:00;;;;;;;19.92;13.05;;;;;;;5.23;100.00;101807.09;5071536;28;20459;-78
2023/02/13 09:11:26;;;;;;;17.85;11.00;;;;;;;5.18;100.00;101861.63;5071556;28;20029;-79
2023/02/13 09:13:52;;;;;;;16.00;11.20;;;;;;;5.21;100.00;101923.84;5072077;28;20028;-78
2023/02/13 09:16:18;;;;;;;17.05;11.55;;;;;;;5.49;100.00;101931.28;5071938;28;20552;-79
2023/02/13 09:18:46;;;;;;;15.98;11.18;;;;;;;4.56;100.00;101875.91;5071073;28;20024;-78
2023/02/13 09:21:11;;;;;;;16.75;11.70;;;;;;;5.89;100.00;101916.28;5071708;28;20071;-78
2023/02/13 09:23:39;;;;;;;16.75;10.50;;;;;;;6.23;100.00;101922.91;5073111;28;20052;-78
2023/02/13 09:26:07;;;;;;;13.93;10.25;;;;;;;5.56;100.00;101897.81;5071862;28;20123;-79
2023/02/13 09:28:34;;;;;;;15.10;10.02;;;;;;;6.08;100.00;101953.72;5071066;28;20481;-78
2023/02/13 09:31:07;;;;;;;16.30;10.52;;;;;;;6.44;100.00;101955.34;5070730;28;20027;-78
2023/02/13 09:33:33;;;;;;;14.40;10.05;;;;;;;6.00;100.00;101901.38;5072133;28;20585;-78
2023/02/13 09:36:06;;;;;;;16.00;11.10;;;;;;;5.90;100.00;101909.56;5087622;28;20032;-78
2023/02/13 09:38:32;;;;;;;16.13;10.90;;;;;;;5.99;100.00;101977.91;5070455;28;20028;-78
2023/02/13 09:41:02;;;;;;;14.70;11.25;;;;;;;7.08;100.00;101950.69;5070617;28;20505;-78
2023/02/13 09:43:58;;;;;;;16.58;11.00;;;;;;;6.99;100.00;101963.19;5072253;28;20040;-79
2023/02/13 09:46:35;;;;;;;19.27;12.35;;;;;;;6.56;100.00;101908.44;5035120;28;20645;-78
2023/02/13 09:49:27;;;;;;;18.67;13.35;;;;;;;6.58;100.00;101916.88;5075528;28;20044;-79
2023/02/13 09:51:56;;;;;;;15.52;11.80;;;;;;;6.31;100.00;101955.91;5092041;28;20024;-79
2023/02/13 09:54:21;;;;;;;17.50;12.63;;;;;;;5.98;100.00;101890.41;5073957;28;20046;-80
2023/02/13 09:56:59;;;;;;;17.80;13.02;;;;;;;6.80;100.00;101939.22;5074276;28;20028;-80
2023/02/13 09:59:56;;;;;;;21.40;13.85;;;;;;;7.38;100.00;101928.47;5092226;28;20038;-79
2023/02/13 10:02:46;;;;;;;19.67;12.13;;;;;;;6.17;100.00;101960.66;5091149;28;20119;-79
2023/02/13 10:05:29;;;;;;;17.00;12.48;;;;;;;6.93;100.00;101941.16;5092214;28;20081;-80
2023/02/13 10:08:08;;;;;;;18.90;12.50;;;;;;;6.71;100.00;101935.69;5091832;28;20497;-78
2023/02/13 10:11:01;;;;;;;14.55;11.10;;;;;;;7.53;100.00;101930.38;5090453;28;20059;-79
2023/02/13 10:13:57;;;;;;;15.90;11.77;;;;;;;7.21;100.00;101923.94;5096139;28;20119;-80
2023/02/13 10:16:51;;;;;;;14.52;10.48;;;;;;;6.55;100.00;101924.41;5095939;28;20036;-78
2023/02/13 10:19:44;;;;;;;21.05;13.68;;;;;;;7.45;100.00;101911.69;4983532;28;10002299;-81
2023/02/13 10:22:20;;;;;;;17.58;11.85;;;;;;;6.82;100.00;101843.19;5051506;28;20241;-80
2023/02/13 10:24:55;;;;;;;14.43;11.40;;;;;;;7.03;100.00;101908.47;5051567;28;20033;-80
2023/02/13 10:27:28;;;;;;;16.42;11.60;;;;;;;7.42;100.00;101878.75;5052488;28;20172;-79
2023/02/13 10:30:05;;;;;;;23.65;15.65;;;;;;;7.50;100.00;101878.06;5052093;28;20029;-77
2023/02/13 10:32:46;;;;;;;20.20;15.13;;;;;;;7.71;100.00;101853.03;5052252;28;20044;-78
2023/02/13 10:35:28;;;;;;;17.60;13.35;;;;;;;8.02;100.00;101853.47;5035754;28;20033;-78
2023/02/13 10:37:56;;;;;;;18.17;13.45;;;;;;;7.36;100.00;101864.34;5053498;28;20040;-83
2023/02/13 10:40:30;;;;;;;19.77;13.63;;;;;;;7.16;100.00;101867.38;5052577;28;20029;-80
2023/02/13 10:43:07;;;;;;;23.55;17.30;;;;;;;8.44;100.00;101809.22;5053486;28;20395;-81
2023/02/13 10:46:03;;;;;;;21.13;14.88;;;;;;;7.70;100.00;101840.38;5052665;28;20045;-81
2023/02/13 10:48:50;;;;;;;19.00;12.77;;;;;;;7.68;100.00;101835.31;5052172;28;20044;-79
2023/02/13 10:51:28;;;;;;;22.70;15.50;;;;;;;8.27;100.00;101757.53;5034870;28;20033;-75
2023/02/13 10:54:16;;;;;;;18.98;14.15;;;;;;;8.18;100.00;101808.03;5037906;28;20495;-82
2023/02/13 10:57:14;;;;;;;23.25;15.43;;;;;;;7.89;100.00;101809.41;5055762;28;20059;-81
2023/02/13 10:59:57;;;;;;;19.95;13.68;;;;;;;8.67;100.00;101794.25;5037862;28;20086;-83
2023/02/13 11:02:29;;;;;;;20.27;15.32;;;;;;;7.48;100.00;101805.47;5055381;28;20039;-83
2023/02/13 11:05:01;;;;;;;17.13;13.23;;;;;;;8.13;100.00;101836.69;5055443;28;20033;-80
2023/02/13 11:07:29;;;;;;;17.95;13.20;;;;;;;7.56;100.00;101792.09;5037352;28;20127;-81
2023/02/13 11:10:00;;;;;;;18.75;13.02;;;;;;;8.58;100.00;101825.41;5055054;28;20017;-80
2023/02/13 11:12:31;;;;;;;23.17;14.18;;;;;;;8.82;100.00;101837.47;5055116;28;20175;-80
2023/02/13 11:15:05;;;;;;;24.33;17.23;;;;;;;8.79;100.00;101773.22;5037677;28;20047;-81
2023/02/13 11:17:35;;;;;;;27.00;18.05;;;;;;;8.04;100.00;101747.97;5054971;28;20491;-82
2023/02/13 11:20:07;;;;;;;21.85;15.90;;;;;;;7.44;100.00;101748.91;5037521;28;20407;-80
2023/02/13 11:22:38;;;;;;;;;;;;;;;8.03;100.00;101820.53;5054333;28;20444;-80
2023/02/13 11:25:17;;;;;;;30.15;19.38;;;;;;;8.76;100.00;101804.44;5054534;28;19912;-81
2023/02/13 11:27:46;;;;;;;23.33;17.40;;;;;;;9.67;100.00;101805.94;5034247;28;20094;-80
2023/02/13 11:30:32;;;;;;;22.10;16.38;;;;;;;8.65;100.00;101834.81;5036180;28;20029;-79
2023/02/13 11:33:17;;;;;;;21.30;14.00;;;;;;;7.76;100.00;101739.19;5054385;28;20111;-78
2023/02/13 11:35:45;;;;;;;22.60;16.25;;;;;;;9.20;100.00;101774.34;5054166;28;20029;-81
2023/02/13 11:38:16;;;;;;;22.35;15.95;;;;;;;8.65;100.00;101768.03;5036634;28;20029;-81
2023/02/13 11:40:46;;;;;;;19.15;14.95;;;;;;;8.51;100.00;101764.50;5037173;28;20033;-80
2023/02/13 11:43:24;;;;;;;24.02;17.80;;;;;;;9.15;100.00;101758.28;5036781;28;20040;-80
2023/02/13 11:46:02;;;;;;;20.85;15.43;;;;;;;9.40;100.00;101763.50;5053726;28;20025;-80
2023/02/13 11:48:27;;;;;;;21.60;16.27;;;;;;;9.06;100.00;101836.84;5054199;28;20443;-79
2023/02/13 11:50:55;;;;;;;22.10;15.15;;;;;;;9.31;100.00;101770.22;5054396;28;20060;-81
2023/02/13 11:53:28;;;;;;;20.35;15.40;;;;;;;9.31;100.00;101820.97;5054463;28;20483;-79
2023/02/13 11:56:12;;;;;;;25.27;16.55;;;;;;;8.85;100.00;101831.59;5054434;28;20039;-80
2023/02/13 11:58:39;;;;;;;21.80;16.20;;;;;;;9.51;100.00;101756.78;5036561;28;20036;-84
2023/02/13 12:01:19;;;;;;;28.60;14.93;;;;;;;10.01;100.00;101810.34;5036660;28;20454;-82
2023/02/13 12:04:27;;;;;;;21.33;15.98;;;;;;;8.62;100.00;101773.91;5053502;28;20496;-80